Time;durP1;ratioP1;P1;durP2;ratioP2;P2;SDS_P1;SDS_P2;PMS_P1;PMS_P2;Temp;Humidity;BMP_temperature;BMP_pressure;BME280_temperature;BME280_humidity;BME280_pressure;Samples;Min_cycle;Max_cycle;Signal;HPM_P1;HPM_P2
2022/10/27 00:00:48;;;;;;;23.20;12.90;;;9.40;99.90;8.80;101029;;;;553688;255;24151;-80
2022/10/27 00:03:15;;;;;;;22.03;13.80;;;9.50;99.90;8.80;101020;;;;566864;248;24134;-80
2022/10/27 00:05:44;;;;;;;24.80;14.13;;;9.50;99.90;8.90;101026;;;;579501;248;24083;-79
2022/10/27 00:08:08;;;;;;;28.07;14.23;;;9.60;99.90;8.90;101020;;;;571031;248;24095;-80
2022/10/27 00:10:37;;;;;;;28.63;15.10;;;9.60;99.90;8.90;101025;;;;580269;247;24090;-80
2022/10/27 00:13:06;;;;;;;29.33;16.00;;;9.60;99.90;8.90;101024;;;;570559;248;24104;-80
2022/10/27 00:15:35;;;;;;;29.60;15.83;;;9.70;99.90;9.00;101027;;;;560772;254;25224;-79
2022/10/27 00:18:08;;;;;;;26.87;15.53;;;9.70;99.90;9.00;101033;;;;563116;251;24224;-80
2022/10/27 00:20:42;;;;;;;23.97;14.40;;;9.70;99.90;9.00;101031;;;;551908;254;24175;-81
2022/10/27 00:23:06;;;;;;;26.10;14.53;;;9.70;99.90;9.10;101042;;;;555467;255;24158;-79
2022/10/27 00:25:34;;;;;;;25.73;15.47;;;9.70;99.90;9.00;101043;;;;560531;251;24176;-79
2022/10/27 00:28:04;;;;;;;30.03;16.10;;;9.80;99.90;9.10;101046;;;;570887;247;24146;-79
2022/10/27 00:30:33;;;;;;;44.22;24.60;;;9.80;99.90;9.10;101049;;;;557883;251;46434;-79
2022/10/27 00:33:01;;;;;;;39.13;21.53;;;9.80;99.90;9.10;101043;;;;571100;247;24199;-80
2022/10/27 00:35:29;;;;;;;30.97;17.83;;;9.80;99.90;9.10;101043;;;;562539;251;24128;-80
2022/10/27 00:37:56;;;;;;;28.70;16.23;;;9.80;99.90;9.10;101041;;;;554945;255;24187;-80
2022/10/27 00:40:24;;;;;;;28.30;15.83;;;9.80;99.90;9.10;101046;;;;562514;251;24124;-81
2022/10/27 00:42:52;;;;;;;32.57;15.47;;;9.80;99.90;9.10;101042;;;;570928;251;24124;-80
2022/10/27 00:45:20;;;;;;;29.83;15.93;;;9.80;99.90;9.10;101043;;;;562484;251;24100;-79
2022/10/27 00:47:48;;;;;;;24.90;14.97;;;9.80;99.90;9.10;101035;;;;550046;256;24165;-79
2022/10/27 00:50:23;;;;;;;26.30;14.97;;;9.90;99.90;9.10;101042;;;;568468;249;24093;-79
2022/10/27 00:53:02;;;;;;;27.67;15.37;;;9.90;99.90;9.20;101044;;;;557916;255;24159;-79
2022/10/27 00:55:29;;;;;;;27.33;16.53;;;9.80;99.90;9.20;101046;;;;570467;251;24125;-79
2022/10/27 00:57:57;;;;;;;24.87;15.13;;;9.90;99.90;9.20;101041;;;;560274;251;24180;-79
2022/10/27 01:00:25;;;;;;;24.43;15.17;;;9.90;99.90;9.20;101043;;;;552755;255;24145;-79
2022/10/27 01:02:53;;;;;;;24.73;14.23;;;9.90;99.90;9.10;101037;;;;562551;251;24173;-79
2022/10/27 01:05:24;;;;;;;26.97;14.43;;;9.80;99.90;9.10;101037;;;;560939;255;24177;-79
2022/10/27 01:07:53;;;;;;;25.33;15.00;;;9.80;99.90;9.10;101042;;;;562701;249;24128;-79
2022/10/27 01:10:24;;;;;;;28.07;14.40;;;9.80;99.90;9.10;101033;;;;571262;247;24120;-79
2022/10/27 01:12:49;;;;;;;24.87;14.87;;;9.80;99.90;9.10;101046;;;;553025;255;24161;-79
2022/10/27 01:15:17;;;;;;;28.73;15.57;;;9.80;99.90;9.10;101040;;;;562831;251;24103;-79
2022/10/27 01:18:06;;;;;;;23.50;15.10;;;9.80;99.90;9.10;101036;;;;561253;254;24150;-79
2022/10/27 01:21:04;;;;;;;29.90;15.33;;;9.80;99.90;9.10;101036;;;;564623;251;24158;-80
2022/10/27 01:23:59;;;;;;;26.47;14.63;;;9.80;99.90;9.10;101041;;;;552369;255;24155;-79
2022/10/27 01:26:48;;;;;;;26.07;15.03;;;9.80;99.90;9.10;101043;;;;562700;251;24121;-80
2022/10/27 01:29:48;;;;;;;24.93;15.23;;;9.80;99.90;9.00;101045;;;;551838;255;25208;-80
2022/10/27 01:32:55;;;;;;;28.97;14.77;;;9.80;99.90;9.00;101051;;;;545312;260;24217;-82
2022/10/27 01:35:44;;;;;;;26.33;13.77;;;9.70;99.90;8.90;101039;;;;562712;251;24140;-79
2022/10/27 01:38:28;;;;;;;23.20;14.93;;;9.60;99.90;8.80;101042;;;;562484;255;24176;-78
2022/10/27 01:41:07;;;;;;;26.80;15.20;;;9.60;99.90;8.80;101047;;;;564163;250;24175;-78
2022/10/27 01:43:39;;;;;;;28.10;14.73;;;9.50;99.90;8.70;101041;;;;551976;251;24166;-79
2022/10/27 01:46:04;;;;;;;32.90;15.07;;;9.40;99.90;8.60;101042;;;;560963;251;24160;-79
2022/10/27 01:48:32;;;;;;;31.63;17.23;;;9.30;99.90;8.50;101034;;;;579348;248;24160;-79
2022/10/27 01:51:06;;;;;;;29.80;15.87;;;9.20;99.90;8.50;101030;;;;552822;256;24175;-80
2022/10/27 01:53:30;;;;;;;35.00;17.23;;;9.10;99.90;8.40;101026;;;;571189;247;24167;-80
2022/10/27 01:56:04;;;;;;;45.80;16.03;;;9.10;99.90;8.40;101034;;;;562994;251;24127;-79
2022/10/27 01:58:46;;;;;;;42.30;17.27;;;9.10;99.90;8.40;101024;;;;571596;251;24131;-79
2022/10/27 02:01:20;;;;;;;48.53;17.03;;;9.10;99.90;8.30;101031;;;;571080;251;24161;-78
2022/10/27 02:04:00;;;;;;;32.93;16.03;;;9.00;99.90;8.30;101029;;;;564595;250;24119;-79
2022/10/27 02:06:48;;;;;;;46.00;17.13;;;9.00;99.90;8.20;101029;;;;563051;251;24119;-79
2022/10/27 02:09:40;;;;;;;34.60;15.50;;;8.90;99.90;8.10;101022;;;;571050;251;24130;-79
2022/10/27 02:12:05;;;;;;;39.57;16.13;;;8.80;99.90;8.00;101030;;;;549782;260;24186;-79
2022/10/27 02:14:33;;;;;;;34.00;15.13;;;8.80;99.90;8.00;101032;;;;556669;251;24129;-80
2022/10/27 02:17:01;;;;;;;54.83;16.70;;;8.70;99.90;8.00;101025;;;;570639;248;24099;-81
2022/10/27 02:19:38;;;;;;;46.60;15.43;;;8.70;99.90;7.90;101028;;;;552997;254;24162;-80
2022/10/27 02:22:06;;;;;;;50.97;15.67;;;8.60;99.90;7.90;101030;;;;553088;255;24142;-81
2022/10/27 02:24:35;;;;;;;56.30;15.87;;;8.60;99.90;7.80;101038;;;;563174;251;24178;-80
2022/10/27 02:27:18;;;;;;;63.67;15.03;;;8.50;99.90;7.80;101029;;;;552695;255;24151;-79
2022/10/27 02:29:47;;;;;;;42.77;13.77;;;8.50;99.90;7.70;101034;;;;558123;251;24171;-80
2022/10/27 02:32:17;;;;;;;29.60;14.07;;;8.50;99.90;7.60;101028;;;;551313;255;24179;-80
2022/10/27 02:34:46;;;;;;;45.67;14.13;;;8.30;99.90;7.60;101022;;;;562996;251;24205;-80
2022/10/27 02:37:20;;;;;;;36.57;13.27;;;8.30;99.90;7.50;101020;;;;570424;248;24199;-80
2022/10/27 02:39:48;;;;;;;24.93;13.10;;;8.30;99.90;7.50;101025;;;;551970;256;24149;-80
2022/10/27 02:42:17;;;;;;;26.70;15.40;;;8.20;99.90;7.50;101022;;;;571122;251;24112;-79
2022/10/27 02:44:45;;;;;;;25.03;12.67;;;8.20;99.90;7.50;101029;;;;562658;251;24213;-80
2022/10/27 02:47:13;;;;;;;46.50;14.63;;;8.20;99.90;7.50;101018;;;;571138;251;24123;-80
2022/10/27 02:49:44;;;;;;;49.27;13.90;;;8.20;99.90;7.50;101029;;;;562625;251;24160;-79
2022/10/27 02:52:13;;;;;;;39.53;13.87;;;8.20;99.90;7.50;101021;;;;562674;251;24120;-81
2022/10/27 02:54:40;;;;;;;29.07;13.10;;;8.20;99.90;7.40;101023;;;;562518;251;24112;-81
2022/10/27 02:57:05;;;;;;;24.13;14.03;;;8.20;99.90;7.40;101021;;;;570091;248;24111;-82
2022/10/27 02:59:36;;;;;;;39.90;13.63;;;8.10;99.90;7.40;101025;;;;552504;256;24168;-81
2022/10/27 03:02:01;;;;;;;30.20;14.20;;;8.10;99.90;7.30;101021;;;;570992;251;24119;-82
2022/10/27 03:04:29;;;;;;;23.83;13.57;;;8.10;99.90;7.30;101033;;;;562752;251;24141;-80
2022/10/27 03:06:59;;;;;;;24.17;13.83;;;8.00;99.90;7.30;101032;;;;570254;248;24080;-81
2022/10/27 03:09:26;;;;;;;28.60;12.13;;;8.00;99.90;7.20;101021;;;;552543;256;24149;-81
2022/10/27 03:11:54;;;;;;;23.90;13.90;;;8.00;99.90;7.20;101027;;;;562678;251;24127;-80
2022/10/27 03:14:22;;;;;;;20.97;12.70;;;7.90;99.90;7.10;101025;;;;570046;248;24085;-80
2022/10/27 03:16:50;;;;;;;23.20;12.80;;;7.90;99.90;7.00;101034;;;;552164;256;24147;-79
2022/10/27 03:19:17;;;;;;;19.90;12.30;;;7.80;99.90;6.90;101029;;;;570939;251;24170;-79
2022/10/27 03:21:48;;;;;;;19.13;12.17;;;7.70;99.90;6.80;101024;;;;562324;251;24144;-81
2022/10/27 03:24:13;;;;;;;21.83;12.03;;;7.60;99.90;6.70;101024;;;;570279;248;24171;-81
2022/10/27 03:26:41;;;;;;;22.57;11.47;;;7.50;99.90;6.60;101030;;;;562429;251;24119;-80
2022/10/27 03:29:09;;;;;;;20.30;12.47;;;7.40;99.90;6.50;101029;;;;570696;251;24169;-80
2022/10/27 03:31:38;;;;;;;32.00;11.43;;;7.30;99.90;6.50;101020;;;;562966;246;24129;-79
2022/10/27 03:34:08;;;;;;;15.30;11.07;;;7.20;99.90;6.40;101019;;;;572869;251;24126;-79
2022/10/27 03:36:39;;;;;;;16.93;10.53;;;7.20;99.90;6.30;101023;;;;564557;251;24110;-79
2022/10/27 03:39:04;;;;;;;17.53;10.70;;;7.10;99.90;6.30;101026;;;;564543;251;24109;-79
2022/10/27 03:41:32;;;;;;;21.90;12.77;;;7.10;99.90;6.20;101019;;;;564471;251;24083;-80
2022/10/27 03:44:00;;;;;;;20.67;12.90;;;7.00;99.90;6.20;101022;;;;572911;251;24142;-81
2022/10/27 03:46:28;;;;;;;20.67;12.07;;;7.00;99.90;6.20;101013;;;;564359;249;24118;-81
2022/10/27 03:48:56;;;;;;;18.90;12.47;;;7.00;99.90;6.10;101020;;;;572981;247;24136;-80
2022/10/27 03:51:27;;;;;;;15.87;11.07;;;6.90;99.90;6.10;101025;;;;564315;251;24126;-81
2022/10/27 03:53:52;;;;;;;18.00;10.67;;;6.90;99.90;6.00;101024;;;;571598;248;24162;-80
2022/10/27 03:56:20;;;;;;;19.93;11.70;;;6.90;99.90;6.00;101038;;;;553940;255;24139;-80
2022/10/27 03:58:48;;;;;;;18.43;11.00;;;6.90;99.90;6.00;101044;;;;572389;251;24186;-80
2022/10/27 04:01:17;;;;;;;20.87;11.87;;;6.90;99.90;6.00;101042;;;;563125;251;24158;-80
2022/10/27 04:03:45;;;;;;;21.13;12.43;;;6.80;99.90;6.00;101048;;;;571684;247;24152;-80
2022/10/27 04:06:13;;;;;;;22.60;14.03;;;6.80;99.90;6.10;101053;;;;563826;251;24132;-80
2022/10/27 04:08:40;;;;;;;20.63;13.50;;;6.80;99.90;6.10;101041;;;;571458;248;24153;-79
2022/10/27 04:11:08;;;;;;;20.17;13.40;;;6.90;99.90;6.10;101049;;;;553462;256;24105;-80
2022/10/27 04:13:39;;;;;;;22.50;12.80;;;6.90;99.90;6.10;101042;;;;572009;248;24158;-79
2022/10/27 04:16:09;;;;;;;22.47;12.90;;;6.90;99.90;6.00;101043;;;;563262;251;24159;-81
2022/10/27 04:18:33;;;;;;;28.07;15.03;;;6.90;99.90;6.10;101041;;;;563326;251;24142;-81
2022/10/27 04:21:02;;;;;;;23.20;12.07;;;6.90;99.90;6.10;101055;;;;563486;251;24132;-81
2022/10/27 04:23:34;;;;;;;20.53;13.10;;;6.90;99.90;6.10;101047;;;;573455;248;24182;-80
2022/10/27 04:26:03;;;;;;;23.93;13.57;;;6.90;99.90;6.10;101048;;;;553031;256;24149;-80
2022/10/27 04:28:31;;;;;;;24.07;14.07;;;7.00;99.90;6.20;101053;;;;571716;250;24148;-81
2022/10/27 04:30:59;;;;;;;23.93;12.50;;;7.00;99.90;6.10;101066;;;;563034;251;24173;-80
2022/10/27 04:33:27;;;;;;;26.83;13.90;;;7.00;99.90;6.10;101060;;;;570846;248;24139;-80
2022/10/27 04:35:52;;;;;;;20.93;12.93;;;7.00;99.90;6.10;101054;;;;552832;256;24167;-80
2022/10/27 04:38:20;;;;;;;21.47;12.73;;;6.90;99.90;6.10;101059;;;;571709;251;24111;-80
2022/10/27 04:40:48;;;;;;;20.53;12.70;;;6.90;99.90;6.00;101056;;;;563167;251;24124;-80
2022/10/27 04:43:20;;;;;;;19.43;12.57;;;6.90;99.90;6.10;101044;;;;572499;250;24148;-80
2022/10/27 04:45:45;;;;;;;22.90;12.47;;;6.90;99.90;6.10;101046;;;;554567;255;24173;-81
2022/10/27 04:48:12;;;;;;;26.90;14.90;;;6.90;99.90;6.20;101046;;;;564476;251;24127;-80
2022/10/27 04:50:40;;;;;;;22.67;14.03;;;7.00;99.90;6.30;101053;;;;572331;251;24136;-79
2022/10/27 04:53:08;;;;;;;24.37;12.97;;;7.10;99.90;6.30;101049;;;;562907;251;24123;-80
2022/10/27 04:55:36;;;;;;;29.43;15.30;;;7.10;99.90;6.30;101054;;;;571323;251;24123;-80
2022/10/27 04:58:04;;;;;;;39.55;22.92;;;7.10;99.90;6.30;101064;;;;558619;251;35544;-80
2022/10/27 05:00:32;;;;;;;40.53;16.80;;;7.20;99.90;6.30;101059;;;;571155;251;24108;-80
2022/10/27 05:03:00;;;;;;;29.13;15.47;;;7.20;99.90;6.30;101059;;;;552226;255;24143;-80
2022/10/27 05:05:31;;;;;;;22.23;14.33;;;7.10;99.90;6.30;101064;;;;562390;251;24154;-81
2022/10/27 05:07:56;;;;;;;28.33;14.77;;;7.10;99.90;6.30;101062;;;;551792;255;25297;-79
2022/10/27 05:10:25;;;;;;;22.73;13.70;;;7.10;99.90;6.20;101059;;;;570848;251;24119;-79
2022/10/27 05:12:53;;;;;;;25.27;14.27;;;7.10;99.90;6.20;101061;;;;570025;248;24134;-82
2022/10/27 05:15:21;;;;;;;28.93;15.00;;;7.00;99.90;6.20;101068;;;;552497;256;24143;-81
2022/10/27 05:17:50;;;;;;;25.93;12.77;;;7.00;99.90;6.20;101068;;;;571226;248;24113;-80
2022/10/27 05:20:21;;;;;;;22.27;12.63;;;7.00;99.90;6.20;101071;;;;569991;248;24190;-81
2022/10/27 05:22:46;;;;;;;24.80;12.90;;;7.00;99.90;6.20;101071;;;;551353;256;24149;-82
2022/10/27 05:25:17;;;;;;;22.03;12.83;;;7.00;99.90;6.20;101070;;;;571798;251;24169;-81
2022/10/27 05:27:42;;;;;;;20.90;12.50;;;7.00;99.90;6.20;101083;;;;562879;251;24129;-82
2022/10/27 05:30:13;;;;;;;19.57;12.47;;;7.00;99.90;6.20;101079;;;;572101;245;24197;-82
2022/10/27 05:32:40;;;;;;;20.67;12.80;;;7.10;99.90;6.30;101079;;;;563268;251;24241;-82
2022/10/27 05:35:12;;;;;;;22.80;12.40;;;7.10;99.90;6.30;101083;;;;580194;248;24078;-81
2022/10/27 05:37:36;;;;;;;21.60;13.00;;;7.10;99.90;6.30;101084;;;;553207;256;24207;-82
2022/10/27 05:40:08;;;;;;;22.70;12.50;;;7.20;99.90;6.40;101090;;;;563463;251;24071;-80
2022/10/27 05:42:33;;;;;;;23.93;12.63;;;7.20;99.90;6.40;101092;;;;563355;251;24135;-80
2022/10/27 05:45:01;;;;;;;20.97;13.07;;;7.20;99.90;6.50;101090;;;;562911;251;24118;-81
2022/10/27 05:47:29;;;;;;;21.33;12.43;;;7.30;99.90;6.60;101102;;;;570581;248;24111;-81
2022/10/27 05:50:00;;;;;;;19.50;11.90;;;7.30;99.90;6.60;101103;;;;552735;256;24191;-81
2022/10/27 05:52:28;;;;;;;20.73;13.60;;;7.40;99.90;6.70;101099;;;;570930;251;24179;-81
2022/10/27 05:54:56;;;;;;;24.30;13.27;;;7.40;99.90;6.80;101096;;;;562894;250;24144;-81
2022/10/27 05:57:24;;;;;;;21.73;12.77;;;7.50;99.90;6.80;101099;;;;571671;247;24109;-81
2022/10/27 05:59:52;;;;;;;24.17;14.23;;;7.70;99.90;7.00;101093;;;;563108;251;25165;-81
2022/10/27 06:02:20;;;;;;;25.23;13.73;;;7.70;99.90;7.00;101090;;;;571263;251;24148;-81
2022/10/27 06:04:49;;;;;;;20.77;11.97;;;7.90;99.90;7.10;101094;;;;562952;251;24110;-81
2022/10/27 06:07:18;;;;;;;23.87;13.83;;;7.90;99.90;7.30;101090;;;;571609;247;24131;-81
2022/10/27 06:09:46;;;;;;;26.53;13.67;;;8.00;99.90;7.40;101088;;;;563481;251;24119;-82
2022/10/27 06:12:14;;;;;;;20.00;11.83;;;8.10;99.90;7.50;101093;;;;571942;251;24117;-82
2022/10/27 06:14:42;;;;;;;20.07;12.50;;;8.30;99.90;7.70;101103;;;;563257;251;24138;-82
2022/10/27 06:17:10;;;;;;;24.33;13.57;;;8.60;99.90;7.90;101095;;;;571982;251;24137;-82
2022/10/27 06:19:40;;;;;;;26.67;12.60;;;8.60;99.90;8.10;101105;;;;563349;251;24110;-82
2022/10/27 06:22:07;;;;;;;25.70;13.50;;;8.80;99.90;8.30;101103;;;;571421;251;24115;-81
2022/10/27 06:24:35;;;;;;;27.17;14.57;;;8.90;99.90;8.40;101104;;;;563074;251;24171;-81
2022/10/27 06:27:03;;;;;;;23.50;12.53;;;9.10;99.90;8.60;101095;;;;571402;251;24136;-81
2022/10/27 06:29:31;;;;;;;26.73;14.57;;;9.20;99.90;8.70;101096;;;;563180;251;24140;-81
2022/10/27 06:31:59;;;;;;;20.07;13.27;;;9.40;99.90;8.70;101101;;;;571414;251;24171;-82
2022/10/27 06:34:27;;;;;;;29.30;14.60;;;9.50;99.90;8.90;101109;;;;563259;251;24148;-82
2022/10/27 06:36:56;;;;;;;23.07;13.13;;;9.70;99.90;9.00;101111;;;;571987;247;24119;-82
2022/10/27 06:39:24;;;;;;;29.97;14.77;;;9.70;99.90;9.10;101116;;;;560866;251;24133;-82
2022/10/27 06:41:51;;;;;;;29.87;13.97;;;9.80;99.90;9.30;101121;;;;571467;248;24115;-82
2022/10/27 06:44:19;;;;;;;25.00;15.03;;;9.90;99.90;9.30;101134;;;;562892;251;24168;-83
2022/10/27 06:46:47;;;;;;;28.27;14.87;;;10.00;99.90;9.40;101121;;;;571600;251;24134;-82
2022/10/27 06:49:15;;;;;;;23.83;13.90;;;10.10;99.90;9.50;101118;;;;560708;251;24100;-81
2022/10/27 06:51:43;;;;;;;26.40;15.70;;;10.20;99.90;9.50;101116;;;;570082;248;24130;-82
2022/10/27 06:54:11;;;;;;;27.67;16.20;;;10.20;99.90;9.50;101119;;;;552394;256;24150;-82
2022/10/27 06:56:39;;;;;;;26.70;15.07;;;10.30;99.90;9.60;101124;;;;562475;251;24122;-82
2022/10/27 06:59:07;;;;;;;26.33;16.03;;;10.30;99.90;9.70;101116;;;;570149;248;24066;-82
2022/10/27 07:01:35;;;;;;;24.73;15.27;;;10.40;99.90;9.70;101135;;;;552022;256;24180;-82
2022/10/27 07:04:03;;;;;;;30.17;15.47;;;10.50;99.90;9.80;101134;;;;562402;251;24137;-83
2022/10/27 07:06:31;;;;;;;29.13;21.03;;;10.50;99.90;9.80;101140;;;;565554;247;35368;-81
2022/10/27 07:08:59;;;;;;;29.30;17.30;;;10.50;99.90;9.90;101159;;;;555668;254;24203;-83
2022/10/27 07:11:27;;;;;;;29.60;16.60;;;10.60;99.90;10.10;101160;;;;563148;251;24173;-83
2022/10/27 07:13:57;;;;;;;26.87;14.83;;;10.70;99.90;10.30;101151;;;;552651;255;24154;-82
2022/10/27 07:16:22;;;;;;;25.40;16.10;;;10.90;99.90;10.60;101150;;;;562876;251;24114;-82
2022/10/27 07:18:50;;;;;;;29.63;16.77;;;11.20;99.90;10.90;101152;;;;553034;256;24171;-83
2022/10/27 07:21:18;;;;;;;28.30;17.07;;;11.50;99.90;11.30;101158;;;;563551;251;24130;-81
2022/10/27 07:23:46;;;;;;;22.43;15.30;;;11.90;99.90;12.00;101154;;;;552827;256;24186;-81
2022/10/27 07:26:14;;;;;;;21.37;15.23;;;12.50;99.90;13.50;101164;;;;562718;251;24115;-80
2022/10/27 07:28:42;;;;;;;21.63;15.77;;;13.80;99.90;14.90;101164;;;;552863;256;24151;-80
2022/10/27 07:31:10;;;;;;;18.80;13.57;;;15.20;99.90;16.30;101172;;;;563602;251;24210;-81
2022/10/27 07:33:39;;;;;;;18.90;12.87;;;18.40;99.90;18.00;101181;;;;552430;256;24134;-79
2022/10/27 07:36:10;;;;;;;15.43;12.40;;;20.10;99.90;19.90;101186;;;;562896;251;24111;-81
2022/10/27 07:38:39;;;;;;;15.30;11.20;;;21.50;99.90;21.00;101194;;;;578988;248;24126;-82
2022/10/27 07:41:04;;;;;;;11.80;10.60;;;21.50;99.90;22.10;101183;;;;552529;256;24151;-82
2022/10/27 07:43:38;;;;;;;13.57;11.07;;;22.60;99.90;22.90;101181;;;;552523;256;24170;-83
2022/10/27 07:46:07;;;;;;;13.33;10.83;;;23.50;99.90;23.80;101173;;;;569612;248;24142;-82
2022/10/27 07:48:35;;;;;;;12.13;10.00;;;24.40;99.90;24.70;101174;;;;552710;256;24216;-81
2022/10/27 07:51:03;;;;;;;13.83;9.73;;;25.40;99.90;25.80;101170;;;;563236;251;24122;-81
2022/10/27 07:53:31;;;;;;;12.07;8.97;;;26.40;99.90;25.80;101175;;;;553043;256;23182;-80
2022/10/27 07:55:59;;;;;;;11.63;9.53;;;26.80;99.90;25.90;101180;;;;552893;256;23244;-81
2022/10/27 07:58:28;;;;;;;13.20;9.60;;;26.80;97.80;26.40;101180;;;;563071;251;24112;-82
2022/10/27 08:00:56;;;;;;;10.47;8.63;;;27.20;95.10;27.20;101189;;;;552595;256;23167;-83
2022/10/27 08:03:29;;;;;;;11.10;8.33;;;27.80;92.40;28.00;101195;;;;552500;256;23154;-83
2022/10/27 08:05:57;;;;;;;9.73;8.43;;;28.50;87.20;28.30;101196;;;;571568;248;24101;-82
2022/10/27 08:08:26;;;;;;;12.30;9.10;;;29.00;83.40;28.70;101213;;;;552888;256;23243;-83
2022/10/27 08:10:51;;;;;;;12.13;8.85;;;29.40;80.80;29.00;101223;;;;553107;256;23172;-81
2022/10/27 08:13:18;;;;;;;9.60;8.30;;;29.80;78.50;29.40;101217;;;;562996;251;24131;-81
2022/10/27 08:15:49;;;;;;;12.48;8.07;;;30.10;74.30;29.60;101216;;;;553044;252;23158;-81
2022/10/27 08:18:14;;;;;;;10.00;9.00;;;30.40;72.40;30.00;101230;;;;573437;247;23140;-81
2022/10/27 08:20:42;;;;;;;10.10;9.20;;;30.80;69.90;30.20;101226;;;;555861;251;23191;-81
2022/10/27 08:23:10;;;;;;;11.10;9.75;;;31.10;68.40;30.60;101230;;;;553460;255;23163;-80
2022/10/27 08:25:38;;;;;;;10.10;7.70;;;31.50;66.90;31.10;101234;;;;563071;251;24175;-81
2022/10/27 08:28:06;;;;;;;9.45;7.50;;;31.90;66.00;31.60;101239;;;;555223;256;23164;-83
2022/10/27 08:30:38;;;;;;;8.27;6.43;;;32.40;63.70;30.80;101236;;;;553037;256;23146;-83
2022/10/27 08:33:02;;;;;;;7.43;6.82;;;32.10;63.40;29.40;101241;;;;563072;251;24168;-82
2022/10/27 08:35:33;;;;;;;7.62;6.90;;;31.30;63.90;28.40;101243;;;;552820;256;23168;-81
2022/10/27 08:38:05;;;;;;;8.07;6.95;;;30.30;66.00;27.50;101240;;;;558706;254;23223;-81
2022/10/27 08:40:59;;;;;;;8.10;6.35;;;29.30;67.60;26.60;101244;;;;561971;251;23117;-81
2022/10/27 08:43:39;;;;;;;6.70;6.00;;;28.40;70.00;25.80;101246;;;;560237;256;23169;-81
2022/10/27 08:46:25;;;;;;;6.47;5.87;;;27.20;72.40;25.30;101230;;;;552402;256;23186;-80
2022/10/27 08:48:59;;;;;;;7.17;6.30;;;26.60;75.10;25.20;101234;;;;564686;251;23129;-80
2022/10/27 08:51:27;;;;;;;8.03;6.47;;;26.20;76.20;24.90;101234;;;;561705;256;23176;-81
2022/10/27 08:53:56;;;;;;;8.30;6.00;;;25.50;78.70;24.50;101245;;;;560225;251;23127;-80
2022/10/27 08:56:25;;;;;;;7.83;6.30;;;25.50;78.60;24.00;101254;;;;569023;251;24157;-80
2022/10/27 08:58:53;;;;;;;7.10;6.40;;;24.50;81.30;23.50;101250;;;;561661;255;23292;-79
2022/10/27 09:01:21;;;;;;;7.60;7.00;;;24.50;81.20;23.00;101257;;;;562496;251;24113;-82
2022/10/27 09:03:58;;;;;;;7.57;6.87;;;24.00;83.20;22.40;101252;;;;561689;255;24174;-78
2022/10/27 09:06:29;;;;;;;7.63;6.83;;;22.80;87.80;22.00;101260;;;;572334;249;24176;-81
2022/10/27 09:09:43;;;;;;;9.73;7.23;;;22.80;87.80;21.80;101259;;;;561694;255;24136;-80
2022/10/27 09:12:57;;;;;;;9.10;7.03;;;22.50;89.60;22.00;101252;;;;552254;256;24134;-81
2022/10/27 09:15:47;;;;;;;7.67;6.93;;;22.30;91.10;21.90;101258;;;;562502;251;24144;-80
2022/10/27 09:18:17;;;;;;;7.77;6.90;;;22.20;91.10;21.70;101255;;;;552408;256;24140;-82
2022/10/27 09:20:54;;;;;;;8.10;7.33;;;22.10;91.60;21.30;101246;;;;573193;250;24111;-82
2022/10/27 09:23:40;;;;;;;8.40;7.37;;;21.80;92.10;21.10;101254;;;;553030;256;24129;-82
2022/10/27 09:26:08;;;;;;;11.63;7.67;;;21.60;92.90;21.00;101248;;;;561000;251;24122;-82
2022/10/27 09:28:54;;;;;;;10.33;7.60;;;21.50;93.90;20.90;101242;;;;570009;251;24182;-82
2022/10/27 09:31:30;;;;;;;8.63;7.23;;;21.40;94.20;20.70;101241;;;;555901;250;23137;-84
2022/10/27 09:34:01;;;;;;;10.47;7.70;;;21.30;94.70;20.50;101239;;;;561571;250;23128;-80
2022/10/27 09:36:30;;;;;;;8.30;7.60;;;21.10;95.40;20.30;101236;;;;565083;250;23124;-81
2022/10/27 09:38:58;;;;;;;9.57;8.57;;;20.90;95.80;20.10;101229;;;;566098;250;24105;-83
2022/10/27 09:41:29;;;;;;;10.97;8.00;;;20.70;96.70;19.90;101234;;;;564717;250;23175;-84
2022/10/27 09:43:55;;;;;;;10.57;8.57;;;20.50;97.50;19.70;101239;;;;564093;250;23259;-81
2022/10/27 09:46:23;;;;;;;11.00;8.70;;;20.30;98.40;19.50;101226;;;;565191;250;24109;-82
2022/10/27 09:49:00;;;;;;;8.20;7.33;;;20.00;99.20;19.20;101229;;;;552783;255;24139;-81
2022/10/27 09:51:57;;;;;;;9.47;8.10;;;19.80;99.90;19.00;101231;;;;563128;251;23152;-80
2022/10/27 09:54:33;;;;;;;10.80;7.70;;;19.40;99.90;18.90;101230;;;;554782;256;24167;-81
2022/10/27 09:57:15;;;;;;;11.93;7.97;;;19.40;99.90;18.70;101235;;;;552964;256;23218;-82
2022/10/27 10:03:26;;;;;;;9.30;8.30;;;19.20;99.90;18.50;101236;;;;553553;256;24140;-81
2022/10/27 10:06:02;;;;;;;10.77;7.83;;;19.00;99.90;18.30;101240;;;;551222;256;23193;-81
2022/10/27 10:08:34;;;;;;;9.03;7.97;;;18.90;99.90;18.30;101240;;;;563125;251;24136;-80
2022/10/27 10:10:59;;;;;;;9.77;7.90;;;18.80;99.90;18.10;101248;;;;560229;256;24161;-80
2022/10/27 10:13:31;;;;;;;11.70;7.40;;;18.70;99.90;18.10;101246;;;;552893;256;24152;-80
2022/10/27 10:16:10;;;;;;;10.23;7.27;;;18.60;99.90;18.10;101242;;;;561218;251;24113;-80
2022/10/27 10:18:39;;;;;;;8.87;7.20;;;18.50;99.90;18.00;101250;;;;552593;256;24140;-80
2022/10/27 10:21:15;;;;;;;13.17;7.07;;;18.50;99.90;18.10;101251;;;;551666;256;24141;-81
2022/10/27 10:23:46;;;;;;;10.40;7.30;;;18.60;99.90;18.20;101244;;;;550873;256;24206;-81
2022/10/27 10:26:20;;;;;;;16.23;6.83;;;18.60;99.90;18.20;101242;;;;563509;251;24106;-81
2022/10/27 10:28:53;;;;;;;9.47;7.23;;;18.70;99.90;18.30;101251;;;;563150;251;24218;-81
2022/10/27 10:31:17;;;;;;;10.87;6.87;;;18.80;99.90;18.50;101242;;;;552401;256;24164;-79
2022/10/27 10:33:45;;;;;;;10.83;7.00;;;18.90;99.90;18.60;101246;;;;551419;255;24154;-80
2022/10/27 10:36:28;;;;;;;11.20;7.83;;;19.10;99.90;18.70;101249;;;;563228;251;24104;-80
2022/10/27 10:39:02;;;;;;;9.80;6.80;;;19.20;99.90;18.70;101252;;;;552850;256;24180;-80
2022/10/27 10:41:31;;;;;;;10.53;6.60;;;19.20;99.90;18.70;101243;;;;553883;255;24168;-80
2022/10/27 10:44:14;;;;;;;8.27;6.90;;;19.20;99.90;18.50;101244;;;;571559;249;24098;-81
2022/10/27 10:46:54;;;;;;;9.73;6.67;;;19.10;99.90;18.40;101248;;;;563110;255;24146;-80
2022/10/27 10:49:31;;;;;;;8.33;7.27;;;19.00;99.90;18.20;101251;;;;551105;255;24135;-81
2022/10/27 10:52:01;;;;;;;10.27;6.77;;;18.80;99.90;18.00;101254;;;;571179;251;24164;-79
2022/10/27 10:54:37;;;;;;;9.47;7.67;;;18.60;99.90;17.90;101260;;;;560332;252;24175;-79
2022/10/27 10:57:04;;;;;;;11.97;7.63;;;18.50;99.90;17.80;101266;;;;550847;255;24154;-81
2022/10/27 10:59:32;;;;;;;14.30;8.60;;;18.30;99.90;17.80;101256;;;;561444;251;24119;-80
2022/10/27 11:02:26;;;;;;;10.77;8.43;;;18.30;99.90;18.00;101264;;;;552052;256;24142;-80
2022/10/27 11:04:53;;;;;;;13.13;9.13;;;18.50;99.90;18.20;101262;;;;572032;250;24104;-80
2022/10/27 11:07:31;;;;;;;13.80;9.40;;;18.60;99.90;18.20;101265;;;;551998;256;24165;-79
2022/10/27 11:10:09;;;;;;;11.97;8.97;;;18.70;99.90;18.30;101262;;;;552101;256;24180;-81
2022/10/27 11:12:44;;;;;;;12.77;10.33;;;18.80;99.90;18.40;101256;;;;563237;251;24163;-81
2022/10/27 11:15:44;;;;;;;10.27;9.17;;;18.90;99.90;18.40;101258;;;;553519;256;24128;-81
2022/10/27 11:18:25;;;;;;;10.87;9.53;;;19.00;99.90;18.50;101256;;;;563577;251;24114;-80
2022/10/27 11:20:56;;;;;;;15.03;9.80;;;19.10;99.90;18.50;101250;;;;562628;255;24156;-80
2022/10/27 11:23:27;;;;;;;15.63;10.33;;;19.10;99.90;18.60;101254;;;;572926;248;24118;-80
2022/10/27 11:25:55;;;;;;;10.93;8.77;;;19.10;99.90;18.50;101256;;;;553516;255;24138;-80
2022/10/27 11:28:54;;;;;;;11.23;8.93;;;19.10;99.90;18.50;101253;;;;569913;249;24085;-80